Time;durP1;ratioP1;P1;durP2;ratioP2;P2;SDS_P1;SDS_P2;PMS_P1;PMS_P2;Temp;Humidity;BMP_temperature;BMP_pressure;BME280_temperature;BME280_humidity;BME280_pressure;Samples;Min_cycle;Max_cycle;Signal;HPM_P1;HPM_P2
2021/05/03 00:00:11;;;;;;;14.25;13.05;;;;;;;6.47;90.72;95717.75;5029484;28;20038;-65
2021/05/03 00:02:37;;;;;;;13.95;12.77;;;;;;;6.47;91.06;95721.19;5030997;28;20472;-65
2021/05/03 00:05:05;;;;;;;14.50;13.30;;;;;;;6.69;92.31;95713.00;5029311;28;20140;-65
2021/05/03 00:07:30;;;;;;;15.60;14.30;;;;;;;6.86;92.15;95712.75;5027855;28;20111;-66
2021/05/03 00:09:56;;;;;;;12.93;11.82;;;;;;;6.47;87.62;95721.19;5029217;28;20064;-66
2021/05/03 00:12:21;;;;;;;13.75;12.75;;;;;;;6.59;89.45;95717.50;5027682;28;20116;-67
2021/05/03 00:14:46;;;;;;;13.68;12.57;;;;;;;6.78;89.69;95732.56;5029233;28;20025;-65
2021/05/03 00:17:12;;;;;;;12.13;11.07;;;;;;;6.35;87.60;95714.59;5031067;28;20034;-66
2021/05/03 00:19:37;;;;;;;12.07;11.07;;;;;;;6.34;85.14;95720.91;5029065;28;20034;-66
2021/05/03 00:22:03;;;;;;;11.90;10.98;;;;;;;5.81;85.57;95721.03;5027342;28;20084;-66
2021/05/03 00:24:28;;;;;;;11.32;10.43;;;;;;;5.76;86.08;95726.28;5027281;28;20037;-66
2021/05/03 00:26:54;;;;;;;13.25;12.15;;;;;;;6.02;90.69;95716.63;5032791;28;20017;-66
2021/05/03 00:29:19;;;;;;;13.52;12.32;;;;;;;6.21;89.30;95709.81;5034894;28;20025;-66
2021/05/03 00:31:45;;;;;;;13.38;12.20;;;;;;;6.56;89.50;95720.69;5032720;28;20132;-66
2021/05/03 00:34:10;;;;;;;14.73;13.52;;;;;;;6.65;90.57;95711.94;5032547;28;20046;-65
2021/05/03 00:36:35;;;;;;;12.52;11.50;;;;;;;6.26;88.08;95714.31;5032515;28;20080;-65
2021/05/03 00:39:01;;;;;;;13.68;12.57;;;;;;;6.32;88.72;95720.38;5032167;28;20067;-65
2021/05/03 00:41:26;;;;;;;15.07;13.88;;;;;;;6.27;88.75;95707.97;5033030;28;20030;-66
2021/05/03 00:43:52;;;;;;;14.50;13.27;;;;;;;6.21;87.95;95723.00;5032579;28;20045;-65
2021/05/03 00:46:21;;;;;;;13.73;12.52;;;;;;;5.98;89.48;95720.84;5032682;28;20057;-65
2021/05/03 00:48:47;;;;;;;14.00;12.70;;;;;;;5.73;87.40;95722.34;5032346;28;20072;-66
2021/05/03 00:51:13;;;;;;;14.15;12.95;;;;;;;6.15;91.25;95724.06;5031575;28;20108;-66
2021/05/03 00:53:39;;;;;;;13.63;12.52;;;;;;;5.94;87.81;95720.59;5034422;28;20025;-66
2021/05/03 00:56:07;;;;;;;13.45;12.35;;;;;;;6.08;88.78;95725.34;5031647;28;20053;-66
2021/05/03 00:58:33;;;;;;;13.40;12.25;;;;;;;5.95;87.40;95708.16;5031944;28;20039;-66
2021/05/03 01:00:58;;;;;;;13.48;12.38;;;;;;;5.95;87.65;95721.38;5031058;28;20462;-66
2021/05/03 01:03:24;;;;;;;14.00;12.55;;;;;;;6.14;87.72;95727.75;5031818;28;20044;-66
2021/05/03 01:05:49;;;;;;;16.52;14.90;;;;;;;6.49;90.04;95728.84;5030705;28;20080;-65
2021/05/03 01:08:15;;;;;;;15.10;13.80;;;;;;;6.47;89.21;95712.47;5032920;28;20029;-65
2021/05/03 01:10:40;;;;;;;16.08;14.48;;;;;;;5.93;87.63;95734.81;5031849;28;20041;-66
2021/05/03 01:13:05;;;;;;;72.43;28.75;;;;;;;4.82;92.35;95742.91;5030565;28;20049;-66
2021/05/03 01:15:31;;;;;;;76.53;35.00;;;;;;;4.58;94.61;95724.81;5032000;28;20037;-66
2021/05/03 01:17:59;;;;;;;76.20;35.63;;;;;;;4.58;96.37;95739.81;5030565;28;20029;-64
2021/05/03 01:20:27;;;;;;;91.05;39.38;;;;;;;4.67;95.89;95751.50;5033637;28;20018;-65
2021/05/03 01:22:56;;;;;;;85.35;40.92;;;;;;;4.80;97.43;95758.19;5031333;28;20116;-66
2021/05/03 01:25:25;;;;;;;90.85;43.33;;;;;;;5.14;96.56;95733.13;5031925;28;20488;-64
2021/05/03 01:27:51;;;;;;;99.65;45.47;;;;;;;5.35;95.08;95731.38;5031489;28;20055;-66
2021/05/03 01:30:17;;;;;;;111.60;48.88;;;;;;;5.43;94.90;95740.66;5031912;28;20122;-65
2021/05/03 01:32:42;;;;;;;123.63;52.80;;;;;;;5.64;96.03;95715.16;5031175;28;20120;-66
2021/05/03 01:35:09;;;;;;;109.53;50.58;;;;;;;5.81;96.03;95723.66;5033567;28;20120;-65
2021/05/03 01:37:34;;;;;;;131.63;57.13;;;;;;;5.89;94.71;95735.59;5031078;28;20048;-65
2021/05/03 01:39:59;;;;;;;127.00;53.47;;;;;;;6.06;95.26;95730.13;5031675;28;20120;-65
2021/05/03 01:42:25;;;;;;;105.18;49.47;;;;;;;5.87;94.34;95716.56;5031112;28;20387;-66
2021/05/03 01:44:59;;;;;;;94.63;49.22;;;;;;;5.74;94.09;95718.63;5031302;28;20030;-66
2021/05/03 01:47:25;;;;;;;97.93;48.28;;;;;;;5.80;93.28;95723.94;5033112;28;20064;-66
2021/05/03 01:49:51;;;;;;;140.23;56.22;;;;;;;6.01;94.71;95727.47;5030877;28;20472;-64
2021/05/03 01:52:16;;;;;;;94.72;45.03;;;;;;;5.84;91.42;95739.00;5030970;28;20061;-65
2021/05/03 01:54:42;;;;;;;102.53;48.28;;;;;;;6.05;93.83;95739.88;5031487;28;20034;-64
2021/05/03 01:57:07;;;;;;;137.77;58.00;;;;;;;6.23;94.14;95730.66;5029594;28;20113;-64
2021/05/03 01:59:34;;;;;;;122.10;54.03;;;;;;;6.26;94.36;95719.59;5033165;28;20109;-64
2021/05/03 02:02:00;;;;;;;112.13;49.30;;;;;;;6.11;92.27;95722.19;5030754;28;20128;-65
2021/05/03 02:04:25;;;;;;;132.88;54.95;;;;;;;6.36;92.64;95745.25;5031200;28;20053;-65
2021/05/03 02:06:51;;;;;;;119.68;51.47;;;;;;;6.31;94.04;95739.94;5029367;28;20034;-65
2021/05/03 02:09:16;;;;;;;119.95;52.20;;;;;;;6.21;93.55;95727.50;5030864;28;20564;-66
2021/05/03 02:11:42;;;;;;;121.10;51.53;;;;;;;6.30;93.72;95743.66;5030702;28;20065;-63
2021/05/03 02:14:09;;;;;;;94.18;42.20;;;;;;;5.39;92.19;95736.94;5033120;28;20049;-65
2021/05/03 02:16:35;;;;;;;91.18;42.10;;;;;;;5.50;92.88;95753.63;5030723;28;20079;-65
2021/05/03 02:19:00;;;;;;;123.45;51.30;;;;;;;5.77;93.69;95750.84;5030396;28;20045;-64
2021/05/03 02:21:26;;;;;;;110.57;47.55;;;;;;;5.91;93.33;95750.13;5030060;28;20052;-65
2021/05/03 02:23:51;;;;;;;97.97;45.33;;;;;;;5.65;91.83;95736.00;5030481;28;20541;-65
2021/05/03 02:26:16;;;;;;;118.85;48.42;;;;;;;5.75;91.96;95743.19;5032642;28;20100;-65
2021/05/03 02:28:42;;;;;;;139.80;53.75;;;;;;;5.92;93.62;95721.88;5029362;28;20037;-65
2021/05/03 02:31:07;;;;;;;107.10;46.05;;;;;;;6.02;94.69;95721.91;5030512;28;20042;-65
2021/05/03 02:33:33;;;;;;;122.68;50.75;;;;;;;6.30;93.65;95746.28;5030186;28;20425;-65
2021/05/03 02:35:59;;;;;;;119.95;50.03;;;;;;;6.06;93.77;95730.91;5030435;28;20028;-65
2021/05/03 02:38:25;;;;;;;117.32;48.55;;;;;;;6.16;93.74;95723.00;5031227;28;20029;-65
2021/05/03 02:40:50;;;;;;;110.90;47.22;;;;;;;5.90;91.99;95731.88;5029040;28;20119;-65
2021/05/03 02:43:16;;;;;;;103.50;47.20;;;;;;;5.98;91.43;95726.91;5029994;28;20033;-65
2021/05/03 02:45:42;;;;;;;101.60;45.53;;;;;;;5.72;92.34;95744.47;5029085;28;20117;-65
2021/05/03 02:48:07;;;;;;;114.85;46.47;;;;;;;5.64;93.90;95729.16;5028014;28;20057;-66
2021/05/03 02:50:33;;;;;;;106.18;45.10;;;;;;;5.73;92.23;95735.53;5031617;28;20037;-64
2021/05/03 02:52:58;;;;;;;93.80;41.85;;;;;;;5.52;92.21;95733.03;5028623;28;20042;-65
2021/05/03 02:55:24;;;;;;;91.40;43.47;;;;;;;5.34;93.88;95729.81;5029420;28;20129;-66
2021/05/03 02:57:50;;;;;;;103.55;45.63;;;;;;;5.25;94.11;95741.88;5028611;28;20507;-64
2021/05/03 03:00:32;;;;;;;94.65;43.67;;;;;;;5.44;93.09;95723.78;5029965;28;20125;-65
2021/05/03 03:02:58;;;;;;;102.13;45.08;;;;;;;5.44;93.43;95729.06;5028180;28;20029;-65
2021/05/03 03:05:24;;;;;;;133.85;52.63;;;;;;;5.92;93.55;95738.50;5031854;28;20108;-64
2021/05/03 03:07:50;;;;;;;95.45;43.75;;;;;;;5.74;92.68;95752.94;5029797;28;20121;-64
2021/05/03 03:10:16;;;;;;;113.50;48.40;;;;;;;5.93;93.45;95740.09;5028390;28;20061;-65
2021/05/03 03:12:41;;;;;;;124.18;51.63;;;;;;;6.14;94.63;95727.75;5029642;28;20384;-65
2021/05/03 03:15:11;;;;;;;124.13;51.00;;;;;;;6.31;94.65;95716.94;5028674;28;20036;-64
2021/05/03 03:17:38;;;;;;;113.93;48.97;;;;;;;6.66;94.87;95747.13;5031415;28;20108;-64
2021/05/03 03:20:07;;;;;;;119.85;49.35;;;;;;;6.70;94.92;95740.22;5027855;28;20041;-64
2021/05/03 03:22:33;;;;;;;86.30;42.50;;;;;;;6.65;94.40;95724.38;5027945;28;20510;-64
2021/05/03 03:24:59;;;;;;;96.75;43.58;;;;;;;6.71;94.18;95747.91;5029702;28;20120;-65
2021/05/03 03:27:24;;;;;;;97.13;44.50;;;;;;;6.59;93.61;95746.56;5029370;28;20116;-65
2021/05/03 03:29:50;;;;;;;89.82;41.92;;;;;;;6.48;92.97;95745.78;5029687;28;20095;-66
2021/05/03 03:32:15;;;;;;;75.20;38.17;;;;;;;6.17;92.54;95745.72;5031695;28;20041;-65
2021/05/03 03:34:40;;;;;;;94.53;42.22;;;;;;;6.16;92.56;95756.56;5029781;28;20030;-65
2021/05/03 03:37:06;;;;;;;79.22;38.67;;;;;;;6.04;92.51;95767.34;5029484;28;20044;-65
2021/05/03 03:39:31;;;;;;;79.13;37.08;;;;;;;5.84;92.27;95756.69;5029830;28;20025;-65
2021/05/03 03:41:57;;;;;;;81.70;41.22;;;;;;;5.16;91.30;95736.28;5029213;28;20467;-65
2021/05/03 03:44:22;;;;;;;100.10;43.38;;;;;;;5.30;93.20;95743.75;5046957;28;20029;-65
2021/05/03 03:46:47;;;;;;;94.93;43.22;;;;;;;5.30;92.27;95772.78;5029383;28;20030;-64
2021/05/03 03:49:13;;;;;;;90.88;40.95;;;;;;;4.94;92.42;95770.69;5029405;28;20041;-64
2021/05/03 03:51:38;;;;;;;81.15;40.03;;;;;;;4.83;92.78;95773.50;5028818;28;20387;-65
2021/05/03 03:54:04;;;;;;;86.55;41.33;;;;;;;4.74;94.20;95798.72;5028139;28;20083;-65
2021/05/03 03:56:30;;;;;;;99.65;44.20;;;;;;;4.67;93.69;95791.81;5031300;28;20021;-64
2021/05/03 03:58:56;;;;;;;102.50;46.42;;;;;;;4.62;94.11;95797.03;5030360;28;20044;-65
2021/05/03 04:01:22;;;;;;;116.65;47.70;;;;;;;4.85;94.50;95801.19;5033189;28;20103;-65
2021/05/03 04:03:54;;;;;;;102.65;44.60;;;;;;;4.97;93.92;95803.66;5033246;28;20049;-65
2021/05/03 04:07:09;;;;;;;110.47;47.25;;;;;;;4.90;93.74;95805.69;5033327;28;20037;-65
2021/05/03 04:09:09;;;;;;;117.20;47.92;;;;;;;4.98;94.23;95791.28;5025355;28;20415;-65
2021/05/03 04:25:41;;;;;;;85.53;42.35;;;;;;;5.22;94.32;95798.59;5026420;28;20095;-65
2021/05/03 04:28:07;;;;;;;86.25;42.67;;;;;;;5.16;94.50;95791.66;5032677;28;20491;-65
2021/05/03 04:30:34;;;;;;;86.22;42.10;;;;;;;5.13;93.72;95805.38;5031586;28;20507;-65
2021/05/03 04:33:00;;;;;;;96.72;44.25;;;;;;;5.47;94.03;95805.03;5032464;28;20048;-64
2021/05/03 04:35:25;;;;;;;89.43;42.85;;;;;;;5.63;93.41;95824.41;5034725;28;20022;-66
2021/05/03 04:37:51;;;;;;;91.32;42.50;;;;;;;5.80;93.33;95819.75;5032567;28;20675;-66
2021/05/03 04:40:17;;;;;;;92.32;44.70;;;;;;;5.70;92.42;95809.16;5032451;28;20168;-64
2021/05/03 04:42:42;;;;;;;106.43;49.15;;;;;;;5.80;91.48;95822.41;5032380;28;20120;-67
2021/05/03 04:45:11;;;;;;;76.07;41.03;;;;;;;5.43;90.23;95814.53;5029690;28;20037;-68
2021/05/03 04:47:37;;;;;;;79.10;41.00;;;;;;;5.62;90.97;95830.72;5034506;28;20026;-70
2021/05/03 04:50:05;;;;;;;82.57;41.80;;;;;;;5.57;92.58;95794.56;5032366;28;20053;-66
2021/05/03 04:52:31;;;;;;;72.07;38.20;;;;;;;5.87;91.99;95830.06;5032178;28;20045;-66
2021/05/03 04:54:56;;;;;;;101.28;45.90;;;;;;;5.89;92.10;95812.94;5032181;28;20034;-67
2021/05/03 04:57:22;;;;;;;66.28;37.30;;;;;;;5.77;89.94;95822.91;5032108;28;20514;-66
2021/05/03 04:59:47;;;;;;;59.50;35.00;;;;;;;5.93;90.11;95821.94;5028990;28;20034;-67
2021/05/03 05:02:12;;;;;;;50.08;31.95;;;;;;;5.62;90.08;95828.09;5027958;28;20044;-67
2021/05/03 05:04:38;;;;;;;51.40;32.03;;;;;;;5.82;90.12;95832.69;5031118;28;20042;-66
2021/05/03 05:07:04;;;;;;;55.13;32.33;;;;;;;5.71;88.87;95842.41;5031944;28;20038;-67
2021/05/03 05:09:29;;;;;;;56.78;33.35;;;;;;;5.78;89.10;95828.97;5032170;28;20041;-67
2021/05/03 05:11:55;;;;;;;50.55;32.33;;;;;;;5.38;88.55;95827.69;5031304;28;20025;-67
2021/05/03 05:14:20;;;;;;;43.33;29.92;;;;;;;5.74;90.38;95844.56;5033738;28;20018;-67
2021/05/03 05:16:47;;;;;;;44.33;30.35;;;;;;;5.82;90.20;95822.94;5031659;28;20040;-66
2021/05/03 05:19:13;;;;;;;41.97;30.25;;;;;;;6.11;87.63;95843.69;5031868;28;20044;-66
2021/05/03 05:21:39;;;;;;;40.50;28.38;;;;;;;6.14;89.38;95836.06;5031167;28;20045;-67
2021/05/03 05:24:06;;;;;;;31.40;25.60;;;;;;;6.26;88.53;95851.69;5030420;28;20026;-67
2021/05/03 05:26:31;;;;;;;30.77;25.10;;;;;;;6.26;85.89;95856.97;5032286;28;20034;-66
2021/05/03 05:28:57;;;;;;;24.52;21.88;;;;;;;6.20;85.76;95850.88;5030297;28;20048;-67
2021/05/03 05:31:22;;;;;;;20.70;18.75;;;;;;;6.19;85.91;95846.66;5031364;28;20042;-66
2021/05/03 05:33:48;;;;;;;18.48;16.77;;;;;;;6.48;86.35;95844.34;5030257;28;20036;-66
2021/05/03 05:36:13;;;;;;;20.13;17.90;;;;;;;6.18;84.51;95841.59;5031644;28;20120;-66
2021/05/03 05:38:39;;;;;;;20.67;18.65;;;;;;;6.21;85.84;95851.66;5032791;28;20030;-66
2021/05/03 05:41:04;;;;;;;19.73;17.90;;;;;;;6.35;85.72;95846.69;5031423;28;20069;-67
2021/05/03 05:43:30;;;;;;;19.90;18.05;;;;;;;6.27;85.62;95852.47;5029826;28;20411;-68
2021/05/03 05:45:55;;;;;;;21.65;19.45;;;;;;;6.54;87.14;95857.56;5031212;28;20069;-68
2021/05/03 05:48:21;;;;;;;20.60;18.42;;;;;;;6.27;86.08;95860.41;5030902;28;20037;-67
2021/05/03 05:50:47;;;;;;;18.08;16.42;;;;;;;6.69;86.81;95861.03;5029340;28;20469;-67
2021/05/03 05:53:12;;;;;;;16.10;14.60;;;;;;;6.46;85.64;95854.41;5032740;28;20029;-67
2021/05/03 05:55:40;;;;;;;18.42;16.63;;;;;;;6.81;86.43;95858.19;5029851;28;20038;-67
2021/05/03 05:58:05;;;;;;;18.30;16.63;;;;;;;6.95;86.48;95867.16;5030606;28;20488;-67
2021/05/03 06:00:31;;;;;;;18.40;16.80;;;;;;;6.97;84.38;95856.34;5031139;28;20043;-67
2021/05/03 06:02:56;;;;;;;15.45;14.05;;;;;;;5.97;83.31;95864.47;5030598;28;20152;-67
2021/05/03 06:05:23;;;;;;;20.58;15.25;;;;;;;6.23;84.45;95868.81;5032912;28;20052;-67
2021/05/03 06:07:48;;;;;;;15.48;14.18;;;;;;;6.31;82.64;95870.19;5030826;28;20029;-67
2021/05/03 06:10:14;;;;;;;15.55;14.27;;;;;;;6.41;84.35;95877.38;5030952;28;20041;-67
2021/05/03 06:12:39;;;;;;;15.98;14.48;;;;;;;6.50;81.82;95879.25;5030712;28;20648;-68
2021/05/03 06:15:05;;;;;;;16.58;15.18;;;;;;;6.57;84.19;95849.94;5030714;28;20041;-67
2021/05/03 06:17:31;;;;;;;14.75;13.35;;;;;;;6.56;85.18;95872.13;5030947;28;20033;-68
2021/05/03 06:19:56;;;;;;;14.77;13.48;;;;;;;6.61;86.78;95882.72;5030293;28;20047;-68
2021/05/03 06:22:21;;;;;;;16.25;14.63;;;;;;;6.40;84.01;95875.78;5028183;28;20037;-68
2021/05/03 06:24:47;;;;;;;14.02;12.77;;;;;;;6.07;81.80;95887.50;5029105;28;20441;-68
2021/05/03 06:27:12;;;;;;;13.13;11.93;;;;;;;6.10;84.34;95876.44;5030367;28;20079;-68
2021/05/03 06:29:38;;;;;;;14.80;13.50;;;;;;;6.41;84.34;95880.81;5031244;28;20025;-68
2021/05/03 06:32:04;;;;;;;13.57;12.38;;;;;;;6.29;81.36;95887.34;5030295;28;20037;-69
2021/05/03 06:34:31;;;;;;;13.30;12.20;;;;;;;6.15;82.60;95890.47;5030201;28;20388;-69
2021/05/03 06:36:57;;;;;;;13.43;12.20;;;;;;;6.24;80.91;95886.28;5030106;28;20042;-69
2021/05/03 06:39:23;;;;;;;14.05;12.85;;;;;;;6.51;81.83;95886.13;5030099;28;20037;-65
2021/05/03 06:41:49;;;;;;;12.90;11.82;;;;;;;6.18;82.35;95882.00;5028442;28;20167;-70
2021/05/03 06:44:17;;;;;;;12.25;11.05;;;;;;;6.30;84.19;95863.31;5032306;28;20021;-75
2021/05/03 06:46:43;;;;;;;13.43;12.35;;;;;;;6.44;79.45;95855.69;5028948;28;20034;-68
2021/05/03 06:49:09;;;;;;;12.65;11.40;;;;;;;6.49;77.50;95900.63;5029909;28;20045;-64
2021/05/03 06:51:35;;;;;;;11.55;10.45;;;;;;;6.66;79.10;95895.94;5027636;28;20040;-69
2021/05/03 06:54:00;;;;;;;12.07;11.15;;;;;;;7.25;78.54;95884.94;5030135;28;20045;-71
2021/05/03 06:56:26;;;;;;;11.45;10.52;;;;;;;7.97;78.44;95890.16;5031994;28;20032;-71
2021/05/03 06:58:52;;;;;;;12.75;11.55;;;;;;;8.33;75.78;95885.53;5029321;28;20049;-70
2021/05/03 07:01:17;;;;;;;11.25;10.07;;;;;;;8.11;71.75;95903.66;5027589;28;20057;-68
2021/05/03 07:03:43;;;;;;;10.95;9.85;;;;;;;7.82;72.88;95872.44;5027728;28;20045;-67
2021/05/03 07:06:10;;;;;;;11.68;10.68;;;;;;;8.09;70.44;95864.19;5027638;28;20045;-69
2021/05/03 07:08:35;;;;;;;11.45;10.30;;;;;;;8.93;70.58;95873.09;5031479;28;20029;-70
2021/05/03 07:11:06;;;;;;;10.85;9.85;;;;;;;8.98;68.64;95873.06;5029444;28;20483;-69
2021/05/03 07:13:31;;;;;;;10.18;9.27;;;;;;;8.07;67.62;95868.94;5029259;28;20499;-71
2021/05/03 07:15:57;;;;;;;10.55;9.65;;;;;;;7.39;72.03;95868.53;5028433;28;20034;-71
2021/05/03 07:18:22;;;;;;;10.60;9.60;;;;;;;7.53;70.49;95848.41;5027626;28;20051;-75
2021/05/03 07:20:48;;;;;;;10.60;9.60;;;;;;;8.03;70.63;95889.09;5028920;28;20064;-69
2021/05/03 07:23:13;;;;;;;10.75;9.68;;;;;;;8.19;69.88;95898.59;5031279;28;20021;-68
2021/05/03 07:25:39;;;;;;;10.48;9.20;;;;;;;8.04;68.12;95902.09;5029629;28;20069;-74
2021/05/03 07:28:04;;;;;;;11.23;10.23;;;;;;;8.31;72.78;95908.91;5028821;28;20068;-71
2021/05/03 07:30:30;;;;;;;9.80;8.90;;;;;;;7.76;69.72;95905.28;5028098;28;20434;-67
2021/05/03 07:32:55;;;;;;;9.75;8.85;;;;;;;7.79;71.39;95908.22;5029256;28;20022;-70
2021/05/03 07:35:20;;;;;;;9.25;8.45;;;;;;;7.80;68.16;95904.50;5029797;28;20067;-70
2021/05/03 07:37:47;;;;;;;9.38;8.68;;;;;;;7.94;68.62;95902.09;5029470;28;20060;-68
2021/05/03 07:40:13;;;;;;;9.88;9.07;;;;;;;8.25;67.34;95902.03;5028351;28;20080;-67
2021/05/03 07:42:38;;;;;;;8.70;8.00;;;;;;;7.98;66.84;95897.03;5027770;28;20064;-69
2021/05/03 07:45:05;;;;;;;9.95;9.05;;;;;;;8.67;64.71;95892.88;5028072;28;20033;-69
2021/05/03 07:47:30;;;;;;;9.27;8.50;;;;;;;8.44;64.23;95886.31;5046660;28;20026;-71
2021/05/03 07:49:58;;;;;;;9.95;8.63;;;;;;;8.68;67.27;95899.75;5028838;28;20060;-69
2021/05/03 07:52:23;;;;;;;9.38;8.63;;;;;;;8.79;62.97;95880.84;5028826;28;20514;-72
2021/05/03 07:54:48;;;;;;;9.77;8.75;;;;;;;8.96;63.22;95903.59;5044937;28;20164;-72
2021/05/03 07:57:14;;;;;;;7.95;7.18;;;;;;;8.57;59.20;95891.84;5029283;28;20038;-73
2021/05/03 07:59:39;;;;;;;9.52;7.60;;;;;;;8.44;59.34;95892.41;5031288;28;20099;-73
2021/05/03 08:02:04;;;;;;;8.85;7.95;;;;;;;8.76;59.88;95893.91;5027971;28;20395;-72
2021/05/03 08:04:30;;;;;;;9.32;7.53;;;;;;;9.08;61.96;95878.28;5029197;28;20057;-73
2021/05/03 08:07:00;;;;;;;8.77;7.80;;;;;;;9.52;57.35;95866.00;5029368;28;20038;-72
2021/05/03 08:09:26;;;;;;;8.57;7.78;;;;;;;9.51;56.92;95859.91;5029255;28;20506;-72
2021/05/03 08:11:52;;;;;;;9.10;8.05;;;;;;;9.63;57.29;95891.44;5028788;28;20034;-71
2021/05/03 08:14:19;;;;;;;8.10;7.45;;;;;;;9.22;58.25;95893.63;5031239;28;20029;-72
2021/05/03 08:16:48;;;;;;;8.45;7.63;;;;;;;9.70;60.62;95897.19;5029041;28;20117;-72
2021/05/03 08:19:13;;;;;;;8.18;7.40;;;;;;;8.73;57.60;95891.78;5027818;28;20029;-72
2021/05/03 08:21:39;;;;;;;8.43;7.72;;;;;;;9.38;56.33;95901.19;5027825;28;20034;-70
2021/05/03 08:24:04;;;;;;;8.52;7.82;;;;;;;9.73;56.99;95896.66;5028838;28;20472;-72
2021/05/03 08:26:30;;;;;;;8.60;7.65;;;;;;;9.81;56.67;95904.00;5031121;28;20018;-73
2021/05/03 08:28:55;;;;;;;9.65;7.50;;;;;;;9.40;57.27;95906.22;5028906;28;20048;-71
2021/05/03 08:31:21;;;;;;;9.68;7.80;;;;;;;9.71;61.61;95900.66;5028817;28;20391;-72
2021/05/03 08:33:46;;;;;;;10.30;7.78;;;;;;;9.29;57.16;95912.66;5044426;28;20033;-72
2021/05/03 08:36:11;;;;;;;8.30;7.40;;;;;;;9.97;62.25;95906.50;5029131;28;20041;-73
2021/05/03 08:38:37;;;;;;;8.80;8.10;;;;;;;9.73;57.49;95915.25;5030783;28;20022;-72
2021/05/03 08:41:03;;;;;;;8.65;7.85;;;;;;;9.68;58.26;95904.66;5029139;28;20033;-76
2021/05/03 08:43:31;;;;;;;8.45;7.65;;;;;;;10.13;59.69;95898.13;5026673;28;20030;-75
2021/05/03 08:45:57;;;;;;;8.13;7.43;;;;;;;10.16;57.87;95900.22;5030144;28;20070;-76
2021/05/03 08:48:36;;;;;;;7.32;6.75;;;;;;;9.49;57.82;95896.59;5031296;28;20065;-76
2021/05/03 08:51:16;;;;;;;7.15;6.55;;;;;;;9.57;56.58;95900.50;5041028;23;20041;-74
2021/05/03 08:53:54;;;;;;;7.25;6.65;;;;;;;9.17;56.86;95897.09;5030949;28;20033;-70
2021/05/03 08:56:19;;;;;;;6.65;6.05;;;;;;;10.09;57.75;95886.47;5034249;28;20042;-69
2021/05/03 08:58:45;;;;;;;6.80;6.10;;;;;;;10.68;59.74;95865.84;5032180;28;20068;-70
2021/05/03 09:01:10;;;;;;;8.77;6.40;;;;;;;11.47;56.38;95871.38;5032019;28;20475;-70
2021/05/03 09:03:40;;;;;;;6.00;5.57;;;;;;;11.02;49.71;95875.50;5032135;28;20124;-74
2021/05/03 09:06:05;;;;;;;6.05;5.55;;;;;;;10.30;51.35;95886.28;5030727;28;20120;-71
2021/05/03 09:08:32;;;;;;;5.82;5.25;;;;;;;11.51;51.61;95872.34;5033819;28;20104;-70
2021/05/03 09:10:58;;;;;;;7.03;5.35;;;;;;;11.05;54.74;95874.91;5032201;28;20033;-70
2021/05/03 09:13:32;;;;;;;5.40;4.90;;;;;;;11.48;50.06;95866.84;5031650;28;20037;-68
2021/05/03 09:16:13;;;;;;;5.20;4.80;;;;;;;11.33;48.32;95875.84;5030863;28;20056;-73
2021/05/03 09:18:40;;;;;;;5.20;4.80;;;;;;;10.48;49.63;95877.53;5031987;28;20037;-71
2021/05/03 09:21:15;;;;;;;6.47;5.18;;;;;;;10.43;52.12;95884.78;5031091;28;20021;-72
2021/05/03 09:24:05;;;;;;;5.07;4.68;;;;;;;10.45;53.31;95877.34;5033622;28;20490;-73
2021/05/03 09:26:32;;;;;;;6.00;5.38;;;;;;;9.99;52.09;95873.28;5032389;28;20518;-71
2021/05/03 09:28:58;;;;;;;5.07;4.68;;;;;;;11.28;57.24;95862.63;5031594;28;20037;-72
2021/05/03 09:31:23;;;;;;;5.63;5.07;;;;;;;12.23;57.77;95862.06;5031500;28;20396;-71
2021/05/03 09:33:50;;;;;;;5.53;4.38;;;;;;;11.25;49.48;95858.66;5031633;28;20134;-73
2021/05/03 09:36:21;;;;;;;4.95;4.55;;;;;;;11.26;46.33;95851.44;5030346;28;20144;-71
2021/05/03 09:38:50;;;;;;;3.92;3.63;;;;;;;10.14;46.32;95861.69;5031498;28;20025;-73
2021/05/03 09:41:21;;;;;;;4.93;4.43;;;;;;;10.12;47.72;95856.66;5031816;28;20570;-73
2021/05/03 09:43:54;;;;;;;4.20;3.90;;;;;;;9.68;49.29;95864.03;5029991;28;20109;-73
2021/05/03 09:46:43;;;;;;;6.20;4.80;;;;;;;9.59;50.65;95869.16;5030070;28;20041;-71
2021/05/03 09:49:16;;;;;;;5.30;4.90;;;;;;;9.72;52.14;95876.44;5031446;28;20041;-73
2021/05/03 09:51:45;;;;;;;4.25;3.95;;;;;;;9.42;48.84;95872.22;5029465;28;20125;-72
2021/05/03 09:54:30;;;;;;;4.47;4.07;;;;;;;9.03;48.43;95874.88;5029855;28;20038;-71
2021/05/03 09:57:03;;;;;;;4.68;4.38;;;;;;;9.62;49.96;95869.38;5029712;28;20033;-71
2021/05/03 09:59:29;;;;;;;4.75;4.18;;;;;;;9.05;50.44;95884.16;5033204;28;20112;-71
2021/05/03 10:02:02;;;;;;;5.50;5.00;;;;;;;9.36;52.90;95874.09;5030450;28;20065;-70
2021/05/03 10:04:28;;;;;;;5.00;4.60;;;;;;;9.27;51.19;95865.16;5031028;28;20383;-70
2021/05/03 10:06:54;;;;;;;4.80;4.40;;;;;;;9.51;48.96;95873.19;5030763;28;20033;-69
2021/05/03 10:09:19;;;;;;;5.53;4.97;;;;;;;9.42;47.46;95861.59;5029277;28;20403;-71
2021/05/03 10:11:45;;;;;;;4.93;4.53;;;;;;;9.43;46.41;95867.69;5030761;28;20068;-71
2021/05/03 10:14:11;;;;;;;4.85;4.32;;;;;;;10.19;46.44;95858.19;5032927;28;20369;-70
2021/05/03 10:16:37;;;;;;;4.82;3.80;;;;;;;10.71;46.96;95852.00;5030985;28;20402;-69
2021/05/03 10:19:05;;;;;;;4.10;3.80;;;;;;;10.33;45.52;95853.78;5028733;28;20039;-72
2021/05/03 10:21:31;;;;;;;3.63;3.33;;;;;;;9.75;43.53;95829.94;5029733;28;20488;-70
2021/05/03 10:23:56;;;;;;;4.47;4.07;;;;;;;10.33;44.53;95843.94;5028519;28;20463;-70
2021/05/03 10:26:25;;;;;;;4.93;4.25;;;;;;;11.42;43.19;95831.50;5032247;28;20076;-70
2021/05/03 10:28:52;;;;;;;5.40;5.00;;;;;;;12.17;41.82;95849.88;5030367;28;20033;-70
2021/05/03 10:31:19;;;;;;;7.00;5.28;;;;;;;10.00;50.56;95855.47;5028790;28;20148;-74
2021/05/03 10:33:45;;;;;;;5.93;5.40;;;;;;;10.01;51.42;95843.75;5030444;28;20431;-68
2021/05/03 10:36:10;;;;;;;6.30;5.80;;;;;;;10.00;50.75;95852.81;5030921;28;20026;-76
2021/05/03 10:38:40;;;;;;;6.35;5.75;;;;;;;10.30;51.87;95852.50;5032275;28;20025;-75
2021/05/03 10:41:20;;;;;;;6.20;5.60;;;;;;;10.54;49.35;95849.00;5029141;28;20124;-76
2021/05/03 10:43:46;;;;;;;6.13;5.63;;;;;;;10.64;50.64;95854.19;5030357;28;20079;-75
2021/05/03 10:49:02;;;;;;;6.55;5.95;;;;;;;10.24;49.33;95850.19;5030097;28;20025;-77
2021/05/03 10:54:22;;;;;;;6.47;5.80;;;;;;;10.67;50.70;95835.00;5030534;28;20086;-76
2021/05/03 10:56:48;;;;;;;6.88;6.25;;;;;;;10.41;48.96;95819.38;5028543;28;20394;-75
2021/05/03 10:59:16;;;;;;;6.22;5.65;;;;;;;10.74;49.03;95818.66;5030943;28;20022;-76
2021/05/03 11:01:56;;;;;;;5.70;5.28;;;;;;;10.11;51.79;95827.69;5029894;28;20642;-75
2021/05/03 11:04:28;;;;;;;5.75;5.25;;;;;;;10.65;48.36;95826.53;5029795;28;20053;-77
2021/05/03 11:06:56;;;;;;;;;;;;;;;10.71;49.77;95817.41;5028485;28;20040;-75
2021/05/03 11:09:25;;;;;;;5.40;5.00;;;;;;;11.84;50.45;95817.19;5028779;28;19928;-76
2021/05/03 11:11:52;;;;;;;5.35;4.90;;;;;;;12.48;47.96;95795.91;5029569;28;20079;-76
2021/05/03 11:14:20;;;;;;;6.07;5.57;;;;;;;11.54;46.29;95804.38;5030657;28;20021;-76
2021/05/03 11:16:53;;;;;;;6.18;5.70;;;;;;;12.17;49.24;95791.22;5029759;28;20045;-76
2021/05/03 11:19:36;;;;;;;6.00;5.53;;;;;;;13.04;43.78;95802.66;5028512;28;20032;-76
2021/05/03 11:22:03;;;;;;;5.80;5.30;;;;;;;13.53;46.90;95787.63;5029550;28;20037;-76
2021/05/03 11:24:38;;;;;;;5.35;4.95;;;;;;;13.22;43.31;95753.66;5029878;28;20438;-76
2021/05/03 11:27:12;;;;;;;5.90;5.40;;;;;;;12.44;45.34;95782.41;5029735;28;20033;-75
2021/05/03 11:29:40;;;;;;;6.78;5.38;;;;;;;13.28;43.07;95746.31;5032021;28;20029;-75
2021/05/03 11:32:06;;;;;;;5.18;4.68;;;;;;;12.71;45.27;95791.44;5028073;28;20131;-77
2021/05/03 11:34:38;;;;;;;5.70;5.20;;;;;;;12.06;45.65;95779.16;5028475;28;20068;-77
2021/05/03 11:37:10;;;;;;;7.55;5.50;;;;;;;11.66;46.95;95778.03;5029343;28;20116;-76
2021/05/03 11:44:57;;;;;;;6.18;5.60;;;;;;;10.38;48.29;95792.56;5030590;28;20132;-79
2021/05/03 11:47:31;;;;;;;5.93;5.43;;;;;;;10.64;48.88;95788.47;5031562;28;20022;-78
2021/05/03 11:49:57;;;;;;;5.55;5.13;;;;;;;11.41;49.31;95789.94;5029318;28;20038;-78
2021/05/03 11:52:32;;;;;;;8.02;5.15;;;;;;;11.67;47.36;95768.97;5028524;28;20034;-77